sensor_id;sensor_type;location;lat;lon;timestamp;temperature;humidity
65544;HTU21D;52173;45.204;39.240;2022-07-23T00:00:56;0.00;0.00
65544;HTU21D;52173;45.204;39.240;2022-07-23T00:03:22;0.00;0.00
65544;HTU21D;52173;45.204;39.240;2022-07-23T00:05:49;0.00;0.00
65544;HTU21D;52173;45.204;39.240;2022-07-23T00:08:15;0.00;0.00
65544;HTU21D;52173;45.204;39.240;2022-07-23T00:10:41;0.00;0.00
65544;HTU21D;52173;45.204;39.240;2022-07-23T00:13:08;0.00;0.00
65544;HTU21D;52173;45.204;39.240;2022-07-23T00:15:34;0.00;0.00
65544;HTU21D;52173;45.204;39.240;2022-07-23T00:18:00;0.00;0.00
65544;HTU21D;52173;45.204;39.240;2022-07-23T00:20:26;0.00;0.00
65544;HTU21D;52173;45.204;39.240;2022-07-23T00:22:54;0.00;0.00
65544;HTU21D;52173;45.204;39.240;2022-07-23T00:25:22;0.00;0.00
65544;HTU21D;52173;45.204;39.240;2022-07-23T00:27:49;0.00;0.00
65544;HTU21D;52173;45.204;39.240;2022-07-23T00:30:15;0.00;0.00
65544;HTU21D;52173;45.204;39.240;2022-07-23T00:32:49;0.00;0.00
65544;HTU21D;52173;45.204;39.240;2022-07-23T00:35:16;0.00;0.00
65544;HTU21D;52173;45.204;39.240;2022-07-23T00:37:42;0.00;0.00
65544;HTU21D;52173;45.204;39.240;2022-07-23T00:40:09;0.00;0.00
65544;HTU21D;52173;45.204;39.240;2022-07-23T00:42:35;0.00;0.00
65544;HTU21D;52173;45.204;39.240;2022-07-23T00:45:01;0.00;0.00
65544;HTU21D;52173;45.204;39.240;2022-07-23T00:47:28;0.00;0.00
65544;HTU21D;52173;45.204;39.240;2022-07-23T00:49:54;0.00;0.00
65544;HTU21D;52173;45.204;39.240;2022-07-23T00:52:20;0.00;0.00
65544;HTU21D;52173;45.204;39.240;2022-07-23T00:54:46;0.00;0.00
65544;HTU21D;52173;45.204;39.240;2022-07-23T00:57:13;0.00;0.00
65544;HTU21D;52173;45.204;39.240;2022-07-23T00:59:40;0.00;0.00
65544;HTU21D;52173;45.204;39.240;2022-07-23T01:02:06;0.00;0.00
65544;HTU21D;52173;45.204;39.240;2022-07-23T01:04:33;0.00;0.00
65544;HTU21D;52173;45.204;39.240;2022-07-23T01:06:59;0.00;0.00
65544;HTU21D;52173;45.204;39.240;2022-07-23T01:09:26;0.00;0.00
65544;HTU21D;52173;45.204;39.240;2022-07-23T01:11:54;0.00;0.00
65544;HTU21D;52173;45.204;39.240;2022-07-23T01:14:21;0.00;0.00
65544;HTU21D;52173;45.204;39.240;2022-07-23T01:16:48;0.00;0.00
65544;HTU21D;52173;45.204;39.240;2022-07-23T01:19:15;0.00;0.00
65544;HTU21D;52173;45.204;39.240;2022-07-23T01:21:44;0.00;0.00
65544;HTU21D;52173;45.204;39.240;2022-07-23T01:24:13;0.00;0.00
65544;HTU21D;52173;45.204;39.240;2022-07-23T01:26:48;0.00;0.00
65544;HTU21D;52173;45.204;39.240;2022-07-23T01:29:15;0.00;0.00
65544;HTU21D;52173;45.204;39.240;2022-07-23T01:31:43;0.00;0.00
65544;HTU21D;52173;45.204;39.240;2022-07-23T01:34:10;0.00;0.00
65544;HTU21D;52173;45.204;39.240;2022-07-23T01:36:37;0.00;0.00
65544;HTU21D;52173;45.204;39.240;2022-07-23T01:39:06;0.00;0.00
65544;HTU21D;52173;45.204;39.240;2022-07-23T01:41:32;0.00;0.00
65544;HTU21D;52173;45.204;39.240;2022-07-23T01:43:58;0.00;0.00
65544;HTU21D;52173;45.204;39.240;2022-07-23T01:46:25;0.00;0.00
65544;HTU21D;52173;45.204;39.240;2022-07-23T01:48:51;0.00;0.00
65544;HTU21D;52173;45.204;39.240;2022-07-23T01:51:36;0.00;0.00
65544;HTU21D;52173;45.204;39.240;2022-07-23T01:54:09;0.00;0.00
65544;HTU21D;52173;45.204;39.240;2022-07-23T01:56:35;0.00;0.00
65544;HTU21D;52173;45.204;39.240;2022-07-23T01:59:02;0.00;0.00
65544;HTU21D;52173;45.204;39.240;2022-07-23T02:01:28;0.00;0.00
65544;HTU21D;52173;45.204;39.240;2022-07-23T02:03:54;0.00;0.00
65544;HTU21D;52173;45.204;39.240;2022-07-23T02:06:20;0.00;0.00
65544;HTU21D;52173;45.204;39.240;2022-07-23T02:08:47;0.00;0.00
65544;HTU21D;52173;45.204;39.240;2022-07-23T02:11:13;0.00;0.00
65544;HTU21D;52173;45.204;39.240;2022-07-23T02:13:39;0.00;0.00
65544;HTU21D;52173;45.204;39.240;2022-07-23T02:16:05;0.00;0.00
65544;HTU21D;52173;45.204;39.240;2022-07-23T02:18:32;0.00;0.00
65544;HTU21D;52173;45.204;39.240;2022-07-23T02:20:58;0.00;0.00
65544;HTU21D;52173;45.204;39.240;2022-07-23T02:23:27;0.00;0.00
65544;HTU21D;52173;45.204;39.240;2022-07-23T02:25:53;0.00;0.00
65544;HTU21D;52173;45.204;39.240;2022-07-23T02:28:19;0.00;0.00
65544;HTU21D;52173;45.204;39.240;2022-07-23T02:30:45;0.00;0.00
65544;HTU21D;52173;45.204;39.240;2022-07-23T02:33:12;0.00;0.00
65544;HTU21D;52173;45.204;39.240;2022-07-23T02:35:39;0.00;0.00
65544;HTU21D;52173;45.204;39.240;2022-07-23T02:38:07;0.00;0.00
65544;HTU21D;52173;45.204;39.240;2022-07-23T02:40:34;0.00;0.00
65544;HTU21D;52173;45.204;39.240;2022-07-23T02:43:01;0.00;0.00
65544;HTU21D;52173;45.204;39.240;2022-07-23T02:45:28;0.00;0.00
65544;HTU21D;52173;45.204;39.240;2022-07-23T02:47:54;0.00;0.00
65544;HTU21D;52173;45.204;39.240;2022-07-23T02:50:22;0.00;0.00
65544;HTU21D;52173;45.204;39.240;2022-07-23T02:52:49;0.00;0.00
65544;HTU21D;52173;45.204;39.240;2022-07-23T02:55:15;0.00;0.00
65544;HTU21D;52173;45.204;39.240;2022-07-23T02:57:41;0.00;0.00
65544;HTU21D;52173;45.204;39.240;2022-07-23T03:00:08;0.00;0.00
65544;HTU21D;52173;45.204;39.240;2022-07-23T03:02:34;0.00;0.00
65544;HTU21D;52173;45.204;39.240;2022-07-23T03:05:00;0.00;0.00
65544;HTU21D;52173;45.204;39.240;2022-07-23T03:07:27;0.00;0.00
65544;HTU21D;52173;45.204;39.240;2022-07-23T03:09:53;0.00;0.00
65544;HTU21D;52173;45.204;39.240;2022-07-23T03:12:19;0.00;0.00
65544;HTU21D;52173;45.204;39.240;2022-07-23T03:14:46;0.00;0.00
65544;HTU21D;52173;45.204;39.240;2022-07-23T03:17:12;0.00;0.00
65544;HTU21D;52173;45.204;39.240;2022-07-23T03:19:38;0.00;0.00
65544;HTU21D;52173;45.204;39.240;2022-07-23T03:22:05;0.00;0.00
65544;HTU21D;52173;45.204;39.240;2022-07-23T03:24:31;0.00;0.00
65544;HTU21D;52173;45.204;39.240;2022-07-23T03:27:16;0.00;0.00
65544;HTU21D;52173;45.204;39.240;2022-07-23T03:29:42;0.00;0.00
65544;HTU21D;52173;45.204;39.240;2022-07-23T03:32:08;22.42;82.14
65544;HTU21D;52173;45.204;39.240;2022-07-23T03:34:36;22.73;81.00
65544;HTU21D;52173;45.204;39.240;2022-07-23T03:37:04;23.11;80.41
65544;HTU21D;52173;45.204;39.240;2022-07-23T03:39:30;23.56;79.18
65544;HTU21D;52173;45.204;39.240;2022-07-23T03:41:56;24.01;78.14
65544;HTU21D;52173;45.204;39.240;2022-07-23T03:44:23;24.36;77.26
65544;HTU21D;52173;45.204;39.240;2022-07-23T03:46:49;24.72;76.12
65544;HTU21D;52173;45.204;39.240;2022-07-23T03:49:16;25.04;74.93
65544;HTU21D;52173;45.204;39.240;2022-07-23T03:51:42;25.34;74.02
65544;HTU21D;52173;45.204;39.240;2022-07-23T03:54:08;25.65;72.85
65544;HTU21D;52173;45.204;39.240;2022-07-23T03:56:35;25.93;72.16
65544;HTU21D;52173;45.204;39.240;2022-07-23T03:59:01;26.27;71.53
65544;HTU21D;52173;45.204;39.240;2022-07-23T04:01:27;26.64;70.08
65544;HTU21D;52173;45.204;39.240;2022-07-23T04:03:53;26.96;69.49
65544;HTU21D;52173;45.204;39.240;2022-07-23T04:06:20;27.22;68.66
65544;HTU21D;52173;45.204;39.240;2022-07-23T04:08:47;27.17;67.39
65544;HTU21D;52173;45.204;39.240;2022-07-23T04:11:13;27.10;67.54
65544;HTU21D;52173;45.204;39.240;2022-07-23T04:13:40;27.26;67.07
65544;HTU21D;52173;45.204;39.240;2022-07-23T04:16:06;27.60;66.85
65544;HTU21D;52173;45.204;39.240;2022-07-23T04:18:33;27.99;65.42
65544;HTU21D;52173;45.204;39.240;2022-07-23T04:21:06;28.31;65.00
65544;HTU21D;52173;45.204;39.240;2022-07-23T04:23:34;28.63;64.03
65544;HTU21D;52173;45.204;39.240;2022-07-23T04:26:00;28.85;62.42
65544;HTU21D;52173;45.204;39.240;2022-07-23T04:28:26;29.05;62.00
65544;HTU21D;52173;45.204;39.240;2022-07-23T04:30:55;29.32;60.89
65544;HTU21D;52173;45.204;39.240;2022-07-23T04:33:22;29.66;60.57
65544;HTU21D;52173;45.204;39.240;2022-07-23T04:35:50;29.91;59.54
65544;HTU21D;52173;45.204;39.240;2022-07-23T04:38:19;29.97;59.20
65544;HTU21D;52173;45.204;39.240;2022-07-23T04:40:49;30.28;58.38
65544;HTU21D;52173;45.204;39.240;2022-07-23T04:43:15;30.51;57.45
65544;HTU21D;52173;45.204;39.240;2022-07-23T04:45:46;30.70;56.42
65544;HTU21D;52173;45.204;39.240;2022-07-23T04:48:12;30.96;55.96
65544;HTU21D;52173;45.204;39.240;2022-07-23T04:50:39;31.30;55.23
65544;HTU21D;52173;45.204;39.240;2022-07-23T04:53:14;31.71;53.78
65544;HTU21D;52173;45.204;39.240;2022-07-23T04:55:41;31.95;52.94
65544;HTU21D;52173;45.204;39.240;2022-07-23T04:58:07;32.20;51.88
65544;HTU21D;52173;45.204;39.240;2022-07-23T05:00:33;32.38;51.65
65544;HTU21D;52173;45.204;39.240;2022-07-23T05:02:59;32.44;51.04
65544;HTU21D;52173;45.204;39.240;2022-07-23T05:05:26;32.52;50.95
65544;HTU21D;52173;45.204;39.240;2022-07-23T05:07:57;32.75;50.49
65544;HTU21D;52173;45.204;39.240;2022-07-23T05:10:24;32.92;49.73
65544;HTU21D;52173;45.204;39.240;2022-07-23T05:12:50;32.92;49.62
65544;HTU21D;52173;45.204;39.240;2022-07-23T05:15:16;33.01;49.74
65544;HTU21D;52173;45.204;39.240;2022-07-23T05:17:42;33.12;48.41
65544;HTU21D;52173;45.204;39.240;2022-07-23T05:20:13;33.16;47.89
65544;HTU21D;52173;45.204;39.240;2022-07-23T05:22:40;33.17;48.05
65544;HTU21D;52173;45.204;39.240;2022-07-23T05:25:07;33.50;47.34
65544;HTU21D;52173;45.204;39.240;2022-07-23T05:27:33;33.89;46.76
65544;HTU21D;52173;45.204;39.240;2022-07-23T05:30:00;34.26;45.82
65544;HTU21D;52173;45.204;39.240;2022-07-23T05:32:26;34.57;44.99
65544;HTU21D;52173;45.204;39.240;2022-07-23T05:35:06;34.77;44.35
65544;HTU21D;52173;45.204;39.240;2022-07-23T05:37:34;35.03;44.29
65544;HTU21D;52173;45.204;39.240;2022-07-23T05:40:05;34.81;43.74
65544;HTU21D;52173;45.204;39.240;2022-07-23T05:42:35;34.35;43.93
65544;HTU21D;52173;45.204;39.240;2022-07-23T05:45:02;34.20;44.76
65544;HTU21D;52173;45.204;39.240;2022-07-23T05:50:08;34.25;45.31
65544;HTU21D;52173;45.204;39.240;2022-07-23T05:52:42;34.29;44.94
65544;HTU21D;52173;45.204;39.240;2022-07-23T05:55:32;34.26;43.51
65544;HTU21D;52173;45.204;39.240;2022-07-23T05:57:59;34.46;43.31
65544;HTU21D;52173;45.204;39.240;2022-07-23T06:00:27;35.14;42.79
65544;HTU21D;52173;45.204;39.240;2022-07-23T06:02:54;35.44;41.45
65544;HTU21D;52173;45.204;39.240;2022-07-23T06:05:22;35.30;41.79
65544;HTU21D;52173;45.204;39.240;2022-07-23T06:07:49;34.81;41.94
65544;HTU21D;52173;45.204;39.240;2022-07-23T06:10:16;34.03;42.86
65544;HTU21D;52173;45.204;39.240;2022-07-23T06:12:43;33.80;42.93
65544;HTU21D;52173;45.204;39.240;2022-07-23T06:15:09;34.00;43.22
65544;HTU21D;52173;45.204;39.240;2022-07-23T06:17:36;34.03;42.49
65544;HTU21D;52173;45.204;39.240;2022-07-23T06:20:06;33.74;43.16
65544;HTU21D;52173;45.204;39.240;2022-07-23T06:22:33;33.64;42.99
65544;HTU21D;52173;45.204;39.240;2022-07-23T06:25:00;34.11;42.13
65544;HTU21D;52173;45.204;39.240;2022-07-23T06:27:26;34.36;41.89
65544;HTU21D;52173;45.204;39.240;2022-07-23T06:29:52;34.86;41.39
65544;HTU21D;52173;45.204;39.240;2022-07-23T06:32:19;35.18;39.98
65544;HTU21D;52173;45.204;39.240;2022-07-23T06:34:45;34.89;40.07
65544;HTU21D;52173;45.204;39.240;2022-07-23T06:37:11;34.91;40.47
65544;HTU21D;52173;45.204;39.240;2022-07-23T06:39:38;35.37;39.18
65544;HTU21D;52173;45.204;39.240;2022-07-23T06:42:04;35.97;38.69
65544;HTU21D;52173;45.204;39.240;2022-07-23T06:44:42;0.00;0.00
65544;HTU21D;52173;45.204;39.240;2022-07-23T06:47:08;0.00;0.00
65544;HTU21D;52173;45.204;39.240;2022-07-23T06:49:35;0.00;0.00
65544;HTU21D;52173;45.204;39.240;2022-07-23T06:52:01;37.61;35.75
65544;HTU21D;52173;45.204;39.240;2022-07-23T06:54:27;37.96;34.68
65544;HTU21D;52173;45.204;39.240;2022-07-23T06:56:53;0.00;0.00
65544;HTU21D;52173;45.204;39.240;2022-07-23T06:59:20;0.00;0.00
65544;HTU21D;52173;45.204;39.240;2022-07-23T07:01:46;0.00;0.00
65544;HTU21D;52173;45.204;39.240;2022-07-23T07:04:12;0.00;0.00
65544;HTU21D;52173;45.204;39.240;2022-07-23T07:06:38;0.00;0.00
65544;HTU21D;52173;45.204;39.240;2022-07-23T07:09:04;0.00;0.00
65544;HTU21D;52173;45.204;39.240;2022-07-23T07:11:30;0.00;0.00
65544;HTU21D;52173;45.204;39.240;2022-07-23T07:13:57;0.00;0.00
65544;HTU21D;52173;45.204;39.240;2022-07-23T07:16:23;0.00;0.00
65544;HTU21D;52173;45.204;39.240;2022-07-23T07:18:49;0.00;0.00
65544;HTU21D;52173;45.204;39.240;2022-07-23T07:21:15;0.00;0.00
65544;HTU21D;52173;45.204;39.240;2022-07-23T07:23:41;0.00;0.00
65544;HTU21D;52173;45.204;39.240;2022-07-23T07:26:08;31.67;43.16
65544;HTU21D;52173;45.204;39.240;2022-07-23T07:28:34;31.41;43.84
65544;HTU21D;52173;45.204;39.240;2022-07-23T07:31:00;31.12;44.94
65544;HTU21D;52173;45.204;39.240;2022-07-23T07:33:26;31.84;44.70
65544;HTU21D;52173;45.204;39.240;2022-07-23T07:35:53;32.05;43.61
65544;HTU21D;52173;45.204;39.240;2022-07-23T07:38:19;31.44;44.38
65544;HTU21D;52173;45.204;39.240;2022-07-23T07:40:45;31.51;45.70
65544;HTU21D;52173;45.204;39.240;2022-07-23T07:43:11;32.61;44.69
65544;HTU21D;52173;45.204;39.240;2022-07-23T07:45:37;33.73;42.00
65544;HTU21D;52173;45.204;39.240;2022-07-23T07:48:04;34.80;39.08
65544;HTU21D;52173;45.204;39.240;2022-07-23T07:50:30;35.09;37.40
65544;HTU21D;52173;45.204;39.240;2022-07-23T07:52:57;35.47;35.83
65544;HTU21D;52173;45.204;39.240;2022-07-23T07:55:23;0.00;0.00
65544;HTU21D;52173;45.204;39.240;2022-07-23T07:57:49;0.00;0.00
65544;HTU21D;52173;45.204;39.240;2022-07-23T08:00:16;0.00;0.00
65544;HTU21D;52173;45.204;39.240;2022-07-23T08:02:52;0.00;0.00
65544;HTU21D;52173;45.204;39.240;2022-07-23T08:05:23;0.00;0.00
65544;HTU21D;52173;45.204;39.240;2022-07-23T08:07:50;0.00;0.00
65544;HTU21D;52173;45.204;39.240;2022-07-23T08:10:16;0.00;0.00
65544;HTU21D;52173;45.204;39.240;2022-07-23T08:12:53;0.00;0.00
65544;HTU21D;52173;45.204;39.240;2022-07-23T08:15:21;0.00;0.00
65544;HTU21D;52173;45.204;39.240;2022-07-23T08:17:48;0.00;0.00
65544;HTU21D;52173;45.204;39.240;2022-07-23T08:20:17;0.00;0.00
65544;HTU21D;52173;45.204;39.240;2022-07-23T08:23:04;0.00;0.00
65544;HTU21D;52173;45.204;39.240;2022-07-23T08:25:33;0.00;0.00
65544;HTU21D;52173;45.204;39.240;2022-07-23T08:28:00;0.00;0.00
65544;HTU21D;52173;45.204;39.240;2022-07-23T08:30:27;0.00;0.00
65544;HTU21D;52173;45.204;39.240;2022-07-23T08:35:33;0.00;0.00
65544;HTU21D;52173;45.204;39.240;2022-07-23T08:38:02;0.00;0.00
65544;HTU21D;52173;45.204;39.240;2022-07-23T08:40:31;0.00;0.00
65544;HTU21D;52173;45.204;39.240;2022-07-23T08:42:57;0.00;0.00
65544;HTU21D;52173;45.204;39.240;2022-07-23T08:45:25;32.87;39.54
65544;HTU21D;52173;45.204;39.240;2022-07-23T08:47:57;32.62;41.06
65544;HTU21D;52173;45.204;39.240;2022-07-23T08:50:26;33.77;39.27
65544;HTU21D;52173;45.204;39.240;2022-07-23T08:52:53;34.80;37.22
65544;HTU21D;52173;45.204;39.240;2022-07-23T08:55:22;34.36;36.92
65544;HTU21D;52173;45.204;39.240;2022-07-23T08:57:50;33.12;38.14
65544;HTU21D;52173;45.204;39.240;2022-07-23T09:00:17;32.46;40.07
65544;HTU21D;52173;45.204;39.240;2022-07-23T09:02:45;32.20;39.75
65544;HTU21D;52173;45.204;39.240;2022-07-23T09:05:12;31.84;40.88
65544;HTU21D;52173;45.204;39.240;2022-07-23T09:16:02;33.67;38.00
65544;HTU21D;52173;45.204;39.240;2022-07-23T09:18:33;34.76;35.73
65544;HTU21D;52173;45.204;39.240;2022-07-23T09:26:42;35.77;33.94
65544;HTU21D;52173;45.204;39.240;2022-07-23T09:31:52;36.89;31.93
65544;HTU21D;52173;45.204;39.240;2022-07-23T09:34:32;37.28;31.42
65544;HTU21D;52173;45.204;39.240;2022-07-23T09:37:12;37.46;31.10
65544;HTU21D;52173;45.204;39.240;2022-07-23T09:39:43;37.44;31.36
65544;HTU21D;52173;45.204;39.240;2022-07-23T09:42:15;36.26;32.38
65544;HTU21D;52173;45.204;39.240;2022-07-23T09:44:43;35.20;33.84
65544;HTU21D;52173;45.204;39.240;2022-07-23T09:47:10;35.54;33.94
65544;HTU21D;52173;45.204;39.240;2022-07-23T09:49:36;36.34;32.70
65544;HTU21D;52173;45.204;39.240;2022-07-23T09:52:03;37.02;30.44
65544;HTU21D;52173;45.204;39.240;2022-07-23T09:54:37;37.06;30.02
65544;HTU21D;52173;45.204;39.240;2022-07-23T09:57:10;36.93;30.35
65544;HTU21D;52173;45.204;39.240;2022-07-23T09:59:42;37.11;30.47
65544;HTU21D;52173;45.204;39.240;2022-07-23T10:02:10;37.17;30.80
65544;HTU21D;52173;45.204;39.240;2022-07-23T10:05:04;36.84;31.37
65544;HTU21D;52173;45.204;39.240;2022-07-23T10:07:51;36.14;31.64
65544;HTU21D;52173;45.204;39.240;2022-07-23T10:10:53;34.74;32.94
65544;HTU21D;52173;45.204;39.240;2022-07-23T10:13:39;33.21;35.37
65544;HTU21D;52173;45.204;39.240;2022-07-23T10:16:20;32.14;38.00
65544;HTU21D;52173;45.204;39.240;2022-07-23T10:18:48;31.51;39.91
65544;HTU21D;52173;45.204;39.240;2022-07-23T10:21:24;30.99;39.32
65544;HTU21D;52173;45.204;39.240;2022-07-23T10:24:21;30.59;40.73
65544;HTU21D;52173;45.204;39.240;2022-07-23T10:26:58;30.28;41.51
65544;HTU21D;52173;45.204;39.240;2022-07-23T10:29:46;30.12;42.80
65544;HTU21D;52173;45.204;39.240;2022-07-23T10:32:26;29.98;42.27
65544;HTU21D;52173;45.204;39.240;2022-07-23T10:35:17;29.79;41.95
65544;HTU21D;52173;45.204;39.240;2022-07-23T10:37:49;29.63;42.50
65544;HTU21D;52173;45.204;39.240;2022-07-23T10:40:22;29.53;43.67
65544;HTU21D;52173;45.204;39.240;2022-07-23T10:42:50;29.54;44.51
65544;HTU21D;52173;45.204;39.240;2022-07-23T10:45:26;29.54;43.93
65544;HTU21D;52173;45.204;39.240;2022-07-23T10:47:54;29.32;44.03
65544;HTU21D;52173;45.204;39.240;2022-07-23T10:50:28;29.03;45.55
65544;HTU21D;52173;45.204;39.240;2022-07-23T10:58:00;28.49;45.52
65544;HTU21D;52173;45.204;39.240;2022-07-23T11:00:30;28.54;46.61
65544;HTU21D;52173;45.204;39.240;2022-07-23T11:02:59;28.56;46.14
65544;HTU21D;52173;45.204;39.240;2022-07-23T11:05:40;28.49;45.87
65544;HTU21D;52173;45.204;39.240;2022-07-23T11:18:58;27.82;47.59
65544;HTU21D;52173;45.204;39.240;2022-07-23T11:31:59;27.96;48.01
65544;HTU21D;52173;45.204;39.240;2022-07-23T11:37:06;28.12;48.18
65544;HTU21D;52173;45.204;39.240;2022-07-23T11:39:33;28.16;47.76
65544;HTU21D;52173;45.204;39.240;2022-07-23T11:42:01;28.18;47.98
65544;HTU21D;52173;45.204;39.240;2022-07-23T11:44:31;28.20;47.83
65544;HTU21D;52173;45.204;39.240;2022-07-23T11:47:03;0.00;0.00
65544;HTU21D;52173;45.204;39.240;2022-07-23T11:49:30;0.00;0.00
65544;HTU21D;52173;45.204;39.240;2022-07-23T11:54:34;0.00;0.00
65544;HTU21D;52173;45.204;39.240;2022-07-23T11:57:01;0.00;0.00
65544;HTU21D;52173;45.204;39.240;2022-07-23T11:59:31;0.00;0.00
65544;HTU21D;52173;45.204;39.240;2022-07-23T12:04:40;0.00;0.00
65544;HTU21D;52173;45.204;39.240;2022-07-23T12:07:32;0.00;0.00
65544;HTU21D;52173;45.204;39.240;2022-07-23T12:10:02;0.00;0.00
65544;HTU21D;52173;45.204;39.240;2022-07-23T12:12:36;0.00;0.00
65544;HTU21D;52173;45.204;39.240;2022-07-23T12:15:04;0.00;0.00
65544;HTU21D;52173;45.204;39.240;2022-07-23T12:17:33;0.00;0.00
65544;HTU21D;52173;45.204;39.240;2022-07-23T12:20:00;0.00;0.00
65544;HTU21D;52173;45.204;39.240;2022-07-23T12:22:37;0.00;0.00
65544;HTU21D;52173;45.204;39.240;2022-07-23T12:25:06;0.00;0.00
65544;HTU21D;52173;45.204;39.240;2022-07-23T12:27:32;0.00;0.00
65544;HTU21D;52173;45.204;39.240;2022-07-23T12:29:58;0.00;0.00
65544;HTU21D;52173;45.204;39.240;2022-07-23T12:32:29;0.00;0.00
65544;HTU21D;52173;45.204;39.240;2022-07-23T12:35:06;0.00;0.00
65544;HTU21D;52173;45.204;39.240;2022-07-23T12:37:35;0.00;0.00
65544;HTU21D;52173;45.204;39.240;2022-07-23T12:40:24;0.00;0.00
65544;HTU21D;52173;45.204;39.240;2022-07-23T12:42:57;0.00;0.00
65544;HTU21D;52173;45.204;39.240;2022-07-23T12:45:24;0.00;0.00
65544;HTU21D;52173;45.204;39.240;2022-07-23T12:47:59;0.00;0.00
65544;HTU21D;52173;45.204;39.240;2022-07-23T12:55:46;0.00;0.00
65544;HTU21D;52173;45.204;39.240;2022-07-23T12:58:18;0.00;0.00
65544;HTU21D;52173;45.204;39.240;2022-07-23T13:01:01;0.00;0.00
65544;HTU21D;52173;45.204;39.240;2022-07-23T13:03:36;0.00;0.00
65544;HTU21D;52173;45.204;39.240;2022-07-23T13:06:04;0.00;0.00
65544;HTU21D;52173;45.204;39.240;2022-07-23T13:08:32;0.00;0.00
65544;HTU21D;52173;45.204;39.240;2022-07-23T13:10:59;0.00;0.00
65544;HTU21D;52173;45.204;39.240;2022-07-23T13:13:27;0.00;0.00
65544;HTU21D;52173;45.204;39.240;2022-07-23T13:15:55;0.00;0.00
65544;HTU21D;52173;45.204;39.240;2022-07-23T13:18:22;0.00;0.00
65544;HTU21D;52173;45.204;39.240;2022-07-23T13:20:49;0.00;0.00
65544;HTU21D;52173;45.204;39.240;2022-07-23T13:23:15;0.00;0.00
65544;HTU21D;52173;45.204;39.240;2022-07-23T13:25:42;0.00;0.00
65544;HTU21D;52173;45.204;39.240;2022-07-23T13:28:09;0.00;0.00
65544;HTU21D;52173;45.204;39.240;2022-07-23T13:30:36;0.00;0.00
65544;HTU21D;52173;45.204;39.240;2022-07-23T13:33:03;0.00;0.00
65544;HTU21D;52173;45.204;39.240;2022-07-23T13:35:31;0.00;0.00
65544;HTU21D;52173;45.204;39.240;2022-07-23T13:37:57;0.00;0.00
65544;HTU21D;52173;45.204;39.240;2022-07-23T13:40:23;0.00;0.00
65544;HTU21D;52173;45.204;39.240;2022-07-23T13:42:49;0.00;0.00
65544;HTU21D;52173;45.204;39.240;2022-07-23T13:45:16;0.00;0.00
65544;HTU21D;52173;45.204;39.240;2022-07-23T13:47:42;0.00;0.00
65544;HTU21D;52173;45.204;39.240;2022-07-23T13:50:08;0.00;0.00
65544;HTU21D;52173;45.204;39.240;2022-07-23T13:52:35;0.00;0.00
65544;HTU21D;52173;45.204;39.240;2022-07-23T13:55:03;0.00;0.00
65544;HTU21D;52173;45.204;39.240;2022-07-23T13:57:30;0.00;0.00
65544;HTU21D;52173;45.204;39.240;2022-07-23T13:59:56;0.00;0.00
65544;HTU21D;52173;45.204;39.240;2022-07-23T14:02:23;0.00;0.00
65544;HTU21D;52173;45.204;39.240;2022-07-23T14:04:50;0.00;0.00
65544;HTU21D;52173;45.204;39.240;2022-07-23T14:07:16;0.00;0.00
65544;HTU21D;52173;45.204;39.240;2022-07-23T14:09:42;0.00;0.00
65544;HTU21D;52173;45.204;39.240;2022-07-23T14:12:09;0.00;0.00
65544;HTU21D;52173;45.204;39.240;2022-07-23T14:14:35;0.00;0.00
65544;HTU21D;52173;45.204;39.240;2022-07-23T14:17:01;0.00;0.00
65544;HTU21D;52173;45.204;39.240;2022-07-23T14:19:28;0.00;0.00
65544;HTU21D;52173;45.204;39.240;2022-07-23T14:21:54;0.00;0.00
65544;HTU21D;52173;45.204;39.240;2022-07-23T14:24:20;0.00;0.00
65544;HTU21D;52173;45.204;39.240;2022-07-23T14:26:47;0.00;0.00
65544;HTU21D;52173;45.204;39.240;2022-07-23T14:29:13;0.00;0.00
65544;HTU21D;52173;45.204;39.240;2022-07-23T14:31:39;0.00;0.00
65544;HTU21D;52173;45.204;39.240;2022-07-23T14:34:05;0.00;0.00
65544;HTU21D;52173;45.204;39.240;2022-07-23T14:36:32;0.00;0.00
65544;HTU21D;52173;45.204;39.240;2022-07-23T14:38:58;0.00;0.00
65544;HTU21D;52173;45.204;39.240;2022-07-23T14:41:24;0.00;0.00
65544;HTU21D;52173;45.204;39.240;2022-07-23T14:43:50;0.00;0.00
65544;HTU21D;52173;45.204;39.240;2022-07-23T14:46:16;0.00;0.00
65544;HTU21D;52173;45.204;39.240;2022-07-23T14:48:42;0.00;0.00
65544;HTU21D;52173;45.204;39.240;2022-07-23T14:51:09;0.00;0.00
65544;HTU21D;52173;45.204;39.240;2022-07-23T14:53:35;0.00;0.00
65544;HTU21D;52173;45.204;39.240;2022-07-23T14:56:01;0.00;0.00
65544;HTU21D;52173;45.204;39.240;2022-07-23T14:58:29;0.00;0.00
65544;HTU21D;52173;45.204;39.240;2022-07-23T15:00:55;0.00;0.00
65544;HTU21D;52173;45.204;39.240;2022-07-23T15:03:21;0.00;0.00
65544;HTU21D;52173;45.204;39.240;2022-07-23T15:05:48;0.00;0.00
65544;HTU21D;52173;45.204;39.240;2022-07-23T15:08:14;0.00;0.00
65544;HTU21D;52173;45.204;39.240;2022-07-23T15:10:40;0.00;0.00
65544;HTU21D;52173;45.204;39.240;2022-07-23T15:13:07;0.00;0.00
65544;HTU21D;52173;45.204;39.240;2022-07-23T15:15:33;0.00;0.00
65544;HTU21D;52173;45.204;39.240;2022-07-23T15:17:59;0.00;0.00
65544;HTU21D;52173;45.204;39.240;2022-07-23T15:20:25;0.00;0.00
65544;HTU21D;52173;45.204;39.240;2022-07-23T15:22:52;0.00;0.00
65544;HTU21D;52173;45.204;39.240;2022-07-23T15:25:18;0.00;0.00
65544;HTU21D;52173;45.204;39.240;2022-07-23T15:27:44;0.00;0.00
65544;HTU21D;52173;45.204;39.240;2022-07-23T15:30:10;0.00;0.00
65544;HTU21D;52173;45.204;39.240;2022-07-23T15:32:37;0.00;0.00
65544;HTU21D;52173;45.204;39.240;2022-07-23T15:35:03;0.00;0.00
65544;HTU21D;52173;45.204;39.240;2022-07-23T15:37:32;0.00;0.00
65544;HTU21D;52173;45.204;39.240;2022-07-23T15:39:59;0.00;0.00
65544;HTU21D;52173;45.204;39.240;2022-07-23T15:42:25;0.00;0.00
65544;HTU21D;52173;45.204;39.240;2022-07-23T15:44:51;0.00;0.00
65544;HTU21D;52173;45.204;39.240;2022-07-23T15:47:18;0.00;0.00
65544;HTU21D;52173;45.204;39.240;2022-07-23T15:49:46;0.00;0.00
65544;HTU21D;52173;45.204;39.240;2022-07-23T15:52:12;0.00;0.00
65544;HTU21D;52173;45.204;39.240;2022-07-23T15:54:38;0.00;0.00
65544;HTU21D;52173;45.204;39.240;2022-07-23T15:57:05;0.00;0.00
65544;HTU21D;52173;45.204;39.240;2022-07-23T15:59:31;0.00;0.00
65544;HTU21D;52173;45.204;39.240;2022-07-23T16:01:58;0.00;0.00
65544;HTU21D;52173;45.204;39.240;2022-07-23T16:04:24;0.00;0.00
65544;HTU21D;52173;45.204;39.240;2022-07-23T16:06:50;0.00;0.00
65544;HTU21D;52173;45.204;39.240;2022-07-23T16:09:17;0.00;0.00
65544;HTU21D;52173;45.204;39.240;2022-07-23T16:11:43;0.00;0.00
65544;HTU21D;52173;45.204;39.240;2022-07-23T16:14:09;0.00;0.00
65544;HTU21D;52173;45.204;39.240;2022-07-23T16:16:36;0.00;0.00
65544;HTU21D;52173;45.204;39.240;2022-07-23T16:19:02;0.00;0.00
65544;HTU21D;52173;45.204;39.240;2022-07-23T16:21:28;0.00;0.00
65544;HTU21D;52173;45.204;39.240;2022-07-23T16:23:54;0.00;0.00
65544;HTU21D;52173;45.204;39.240;2022-07-23T16:26:21;0.00;0.00
65544;HTU21D;52173;45.204;39.240;2022-07-23T16:28:47;0.00;0.00